Armony — 5IM517 — position and weather

sailwx.info

Track history (hours):
 
Tides and Currents Weather Stations Pressure Air Temp Water Temp Dewpoint Dewpoint Depression Visibility Wind Speed Wind Dir Waves Ship Positions

Armony

Last reported at 2015-Jun-30 13:25 UTC. Time now 2015-Jul-01 11:58 UTC.
Position N 40°45' E 029°28'.

Length 70 m; draft 4.6 m.

Type: Ship. MMSI: 677041700.

Date/timePositionNaut miles runAvg speedWind from/ knotsBaromVisibWave heightAir tempDewpointWater temp
2015-Jun-30 13:25N 40°45' E 029°28'6 7.4
2015-Jun-30 12:33N 40°44' E 029°20'8 7.5
2015-Jun-30 11:33N 40°46' E 029°10'7 7.3
2015-Jun-30 10:33N 40°49' E 029°01'7 7.2
2015-Jun-30 09:33N 40°56' E 028°57'26 1.6
2015-Jun-29 17:29N 41°21' E 028°51'7 7.2
2015-Jun-29 16:33N 41°26' E 028°44'  
2015-Jun-24 17:14N 40°59' E 028°60'4 5.6
2015-Jun-24 16:33N 40°56' E 028°60'6 5.8
2015-Jun-24 15:33N 40°51' E 029°04'5 5.1
2015-Jun-24 14:33N 40°53' E 029°11'0 0.0
2015-Jun-24 13:31N 40°53' E 029°11'0 0.0
2015-Jun-24 12:19N 40°53' E 029°11'0 0.0
2015-Jun-24 11:31N 40°53' E 029°11'0 0.0
2015-Jun-24 10:25N 40°53' E 029°11'0 0.0
2015-Jun-24 09:07N 40°53' E 029°11'0 0.0
2015-Jun-24 08:25N 40°53' E 029°11'0 0.0
2015-Jun-24 07:19N 40°53' E 029°11'0 0.1
2015-Jun-24 06:25N 40°53' E 029°11'5 5.9
2015-Jun-24 05:33N 40°48' E 029°13'9 8.0
2015-Jun-24 04:29N 40°45' E 029°23'  
Track history (hours):
 
Tides and Currents Weather Stations Pressure Air Temp Water Temp Dewpoint Dewpoint Depression Visibility Wind Speed Wind Dir Waves Ship Positions

Armony

Last reported at 2015-Jun-30 13:25 UTC. Time now 2015-Jul-01 11:58 UTC.
Position N 40°45' E 029°28'.

Length 70 m; draft 4.6 m.

Type: Ship. MMSI: 677041700.

Date/timePositionNaut miles runAvg speedWind from/ knotsBaromVisibWave heightAir tempDewpointWater temp
2015-Jun-30 13:25N 40°45' E 029°28'6 7.4
2015-Jun-30 12:33N 40°44' E 029°20'8 7.5
2015-Jun-30 11:33N 40°46' E 029°10'7 7.3
2015-Jun-30 10:33N 40°49' E 029°01'7 7.2
2015-Jun-30 09:33N 40°56' E 028°57'26 1.6
2015-Jun-29 17:29N 41°21' E 028°51'7 7.2
2015-Jun-29 16:33N 41°26' E 028°44'  
2015-Jun-24 17:14N 40°59' E 028°60'4 5.6
2015-Jun-24 16:33N 40°56' E 028°60'6 5.8
2015-Jun-24 15:33N 40°51' E 029°04'5 5.1
2015-Jun-24 14:33N 40°53' E 029°11'0 0.0
2015-Jun-24 13:31N 40°53' E 029°11'0 0.0
2015-Jun-24 12:19N 40°53' E 029°11'0 0.0
2015-Jun-24 11:31N 40°53' E 029°11'0 0.0
2015-Jun-24 10:25N 40°53' E 029°11'0 0.0
2015-Jun-24 09:07N 40°53' E 029°11'0 0.0
2015-Jun-24 08:25N 40°53' E 029°11'0 0.0
2015-Jun-24 07:19N 40°53' E 029°11'0 0.1
2015-Jun-24 06:25N 40°53' E 029°11'5 5.9
2015-Jun-24 05:33N 40°48' E 029°13'9 8.0
2015-Jun-24 04:29N 40°45' E 029°23'  

Dump ship's entire track history